Time;durP1;ratioP1;P1;durP2;ratioP2;P2;SDS_P1;SDS_P2;PMS_P1;PMS_P2;Temp;Humidity;BMP_temperature;BMP_pressure;BME280_temperature;BME280_humidity;BME280_pressure;Samples;Min_cycle;Max_cycle;Signal;HPM_P1;HPM_P2
2022/12/11 00:00:40;;;;;;;11.60;10.70;;;;;;;22.02;45.31;92977.22;6288029;27;103218;-64
2022/12/11 00:03:43;;;;;;;10.83;9.93;;;;;;;22.02;45.32;92983.31;6277536;27;103022;-63
2022/12/11 00:06:49;;;;;;;10.70;9.80;;;;;;;22.00;45.41;92968.78;6284569;27;103387;-63
2022/12/11 00:09:52;;;;;;;10.90;9.97;;;;;;;21.99;45.22;92976.00;6277554;27;103084;-63
2022/12/11 00:12:55;;;;;;;9.90;9.10;;;;;;;22.00;45.16;92984.75;6279947;27;102891;-64
2022/12/11 00:15:59;;;;;;;10.30;9.43;;;;;;;21.99;45.39;92946.72;6274574;27;104114;-63
2022/12/11 00:19:02;;;;;;;10.50;9.60;;;;;;;22.00;45.27;92969.56;6282926;27;104112;-64
2022/12/11 00:22:07;;;;;;;10.57;9.67;;;;;;;22.00;45.15;92958.13;6275966;27;104166;-64
2022/12/11 00:25:10;;;;;;;10.23;9.43;;;;;;;22.00;45.22;92947.47;6279983;27;103103;-63
2022/12/11 00:28:16;;;;;;;10.47;9.67;;;;;;;21.90;44.96;92954.19;6287048;27;105105;-63
2022/12/11 00:31:20;;;;;;;10.57;9.67;;;;;;;21.99;44.63;92948.59;6279031;27;104166;-62
2022/12/11 00:34:23;;;;;;;10.00;9.20;;;;;;;21.99;45.19;92938.72;6272982;27;103034;-63
2022/12/11 00:37:28;;;;;;;9.87;9.07;;;;;;;21.99;45.14;92957.38;6286951;27;103587;-65
2022/12/11 00:40:33;;;;;;;9.57;8.77;;;;;;;21.99;44.60;92914.75;6286853;27;103179;-63
2022/12/11 00:43:37;;;;;;;9.87;8.97;;;;;;;21.98;44.97;92942.50;6273920;27;104054;-63
2022/12/11 00:46:40;;;;;;;9.43;8.63;;;;;;;21.99;44.77;92940.63;6287041;27;104485;-63
2022/12/11 00:49:43;;;;;;;9.40;8.70;;;;;;;21.93;44.66;92942.81;6285909;27;103413;-63
2022/12/11 00:52:53;;;;;;;9.80;9.00;;;;;;;21.99;44.65;92940.63;6285556;27;103986;-63
2022/12/11 00:55:56;;;;;;;10.30;9.50;;;;;;;21.99;44.97;92919.31;6274935;27;104075;-63
2022/12/11 00:58:59;;;;;;;9.13;8.33;;;;;;;21.97;44.75;92951.63;6285879;27;105767;-62
2022/12/11 01:02:02;;;;;;;9.40;8.60;;;;;;;21.97;44.51;92927.66;6285568;27;103133;-64
2022/12/11 01:05:06;;;;;;;9.50;8.70;;;;;;;21.98;45.02;92961.16;6283367;27;103244;-63
2022/12/11 01:08:11;;;;;;;9.57;8.77;;;;;;;21.98;44.58;92969.16;6278032;27;103059;-63
2022/12/11 01:11:16;;;;;;;9.50;8.73;;;;;;;21.90;45.15;92938.22;6286650;27;103918;-62
2022/12/11 01:14:19;;;;;;;9.70;8.90;;;;;;;21.96;45.06;92963.41;6284377;27;103077;-63
2022/12/11 01:17:22;;;;;;;9.20;8.47;;;;;;;21.98;45.16;92979.03;6277241;27;104062;-63
2022/12/11 01:20:27;;;;;;;9.90;9.10;;;;;;;21.98;44.92;92928.44;6284435;27;103131;-63
2022/12/11 01:23:32;;;;;;;8.80;8.10;;;;;;;21.98;44.58;92955.81;6268912;27;103977;-63
2022/12/11 01:26:35;;;;;;;8.97;8.27;;;;;;;21.98;44.54;92982.47;6285076;27;103217;-63
2022/12/11 01:29:38;;;;;;;8.30;7.70;;;;;;;21.99;44.97;92984.00;6276677;27;103469;-63
2022/12/11 01:32:41;;;;;;;9.00;8.30;;;;;;;21.98;44.36;92979.03;6283874;27;103082;-63
2022/12/11 01:35:44;;;;;;;8.10;7.50;;;;;;;21.98;44.50;93003.00;6271674;27;103161;-63
2022/12/11 01:38:49;;;;;;;9.60;8.83;;;;;;;21.97;44.72;92953.53;6285883;27;104127;-63
2022/12/11 01:41:57;;;;;;;8.63;7.93;;;;;;;21.97;44.70;92953.53;6270321;27;103324;-64
2022/12/11 01:45:32;;;;;;;8.27;7.47;;;;;;;21.96;44.73;92939.44;6281997;27;103057;-63
2022/12/11 01:48:35;;;;;;;8.40;7.50;;;;;;;21.86;44.76;92913.44;6284561;27;104030;-62
2022/12/11 01:51:49;;;;;;;8.20;7.50;;;;;;;21.98;44.40;92955.06;6276364;27;103602;-63
2022/12/11 01:54:53;;;;;;;8.10;7.50;;;;;;;21.96;44.81;92958.09;6277207;27;103293;-63
2022/12/11 01:57:56;;;;;;;8.87;8.10;;;;;;;21.96;44.70;92955.41;6284401;27;102933;-63
2022/12/11 02:01:01;;;;;;;9.00;8.30;;;;;;;21.96;44.44;92949.31;6285684;27;104337;-62
2022/12/11 02:04:06;;;;;;;8.67;7.87;;;;;;;21.96;44.70;92981.28;6252376;27;103954;-63
2022/12/11 02:07:09;;;;;;;7.70;7.10;;;;;;;21.95;44.81;92951.22;6280414;27;103887;-63
2022/12/11 02:10:15;;;;;;;7.40;6.90;;;;;;;21.96;44.21;92959.97;6284063;27;104341;-63
2022/12/11 02:13:26;;;;;;;8.17;7.50;;;;;;;21.95;44.49;92940.56;6283169;27;104361;-64
2022/12/11 02:16:41;;;;;;;7.93;7.33;;;;;;;21.95;44.48;92942.47;6274748;27;104201;-63
2022/12/11 02:19:52;;;;;;;8.07;7.40;;;;;;;21.96;44.37;92958.09;6284201;27;103512;-63
2022/12/11 02:23:19;;;;;;;8.07;7.37;;;;;;;21.94;44.33;92939.03;6281396;27;103077;-63
2022/12/11 02:26:49;;;;;;;7.57;6.90;;;;;;;21.94;44.28;92907.06;6278850;27;104538;-63
2022/12/11 02:30:00;;;;;;;8.10;7.40;;;;;;;21.95;44.20;92929.16;6284150;27;103244;-63
2022/12/11 02:33:03;;;;;;;7.23;6.63;;;;;;;21.92;44.64;92901.34;6269412;27;103566;-64
2022/12/11 02:36:09;;;;;;;7.20;6.60;;;;;;;21.94;44.76;92888.44;6281493;27;104556;-63
2022/12/11 02:39:15;;;;;;;7.00;6.40;;;;;;;21.94;44.72;92871.69;6273821;27;104144;-63
2022/12/11 02:42:20;;;;;;;8.20;7.50;;;;;;;21.94;44.47;92875.13;6282379;27;104189;-62
2022/12/11 02:45:27;;;;;;;7.90;7.27;;;;;;;21.91;44.85;92859.09;6272563;27;102934;-64
2022/12/11 02:48:32;;;;;;;6.57;6.07;;;;;;;21.94;44.46;92861.81;6284318;27;103313;-64
2022/12/11 02:51:39;;;;;;;8.80;8.00;;;;;;;21.96;44.23;92845.47;6273785;27;103982;-65
2022/12/11 02:54:44;;;;;;;6.97;6.47;;;;;;;21.86;44.28;92846.09;6282287;27;103338;-65
2022/12/11 02:57:51;;;;;;;7.07;6.47;;;;;;;21.95;44.55;92879.31;6286672;27;103447;-65
2022/12/11 03:00:56;;;;;;;7.17;6.60;;;;;;;21.93;44.23;92873.59;6277137;27;104330;-65
2022/12/11 03:03:59;;;;;;;6.43;5.93;;;;;;;21.96;44.23;92899.50;6278748;27;103161;-65
2022/12/11 03:07:11;;;;;;;7.30;6.70;;;;;;;21.96;44.20;92902.16;6284203;27;103333;-65
2022/12/11 03:10:17;;;;;;;6.83;6.33;;;;;;;21.96;44.17;92902.16;6288304;27;103163;-65
2022/12/11 03:13:22;;;;;;;6.60;6.10;;;;;;;21.96;44.70;92891.50;6260287;27;103258;-65
2022/12/11 03:16:34;;;;;;;6.20;5.70;;;;;;;21.96;44.54;92899.50;6278007;27;104335;-65
2022/12/11 03:19:41;;;;;;;6.63;6.10;;;;;;;21.90;44.77;92870.88;6289006;27;103260;-65
2022/12/11 03:22:51;;;;;;;5.87;5.40;;;;;;;21.96;44.13;92859.56;6287611;27;103398;-64
2022/12/11 03:25:56;;;;;;;6.30;5.80;;;;;;;21.93;44.63;92878.13;6276804;27;104988;-65
2022/12/11 03:29:04;;;;;;;6.47;5.97;;;;;;;21.95;44.54;92892.63;6288998;27;103356;-65
2022/12/11 03:32:13;;;;;;;6.87;6.27;;;;;;;21.90;44.33;92868.97;6284661;27;103162;-65
2022/12/11 03:35:20;;;;;;;6.77;6.27;;;;;;;21.96;44.53;92864.09;6281274;27;102803;-65
2022/12/11 03:38:28;;;;;;;7.03;6.40;;;;;;;21.96;43.93;92870.19;6283673;27;103199;-65
2022/12/11 03:41:33;;;;;;;6.47;6.00;;;;;;;21.96;44.30;92912.81;6279042;27;103079;-64
2022/12/11 03:44:36;;;;;;;6.10;5.60;;;;;;;21.96;44.55;92904.06;6277916;27;104632;-65
2022/12/11 03:47:43;;;;;;;7.00;6.50;;;;;;;21.93;44.50;92920.75;6278516;27;103928;-64
2022/12/11 03:50:48;;;;;;;7.00;6.50;;;;;;;21.97;44.56;92914.34;6288447;27;103245;-64
2022/12/11 03:53:53;;;;;;;6.27;5.77;;;;;;;21.97;43.97;92906.34;6263659;27;106837;-64
2022/12/11 03:56:59;;;;;;;5.60;5.20;;;;;;;21.97;44.09;92910.91;6287763;27;104115;-64
2022/12/11 04:00:03;;;;;;;6.40;5.83;;;;;;;21.88;44.21;92902.41;6277529;27;103188;-64
2022/12/11 04:03:15;;;;;;;6.40;5.90;;;;;;;21.96;44.08;92926.13;6273184;27;103097;-65
2022/12/11 04:06:18;;;;;;;6.03;5.63;;;;;;;21.97;44.06;92927.66;6284636;27;103053;-65
2022/12/11 04:09:21;;;;;;;6.50;6.00;;;;;;;21.97;43.84;92932.22;6281536;27;103606;-65
2022/12/11 04:12:24;;;;;;;6.33;5.83;;;;;;;21.95;43.91;92908.59;6273216;27;103296;-65
2022/12/11 04:15:27;;;;;;;6.53;6.03;;;;;;;21.96;44.25;92923.47;6269962;27;103020;-65
2022/12/11 04:25:15;;;;;;;6.73;6.23;;;;;;;21.95;43.96;92943.22;6267710;27;103358;-64
2022/12/11 04:28:18;;;;;;;5.83;5.40;;;;;;;21.97;43.68;92958.84;6287272;27;103180;-65
2022/12/11 04:31:22;;;;;;;7.33;6.73;;;;;;;21.94;43.98;92968.31;6286965;27;104227;-64
2022/12/11 04:34:27;;;;;;;7.27;6.60;;;;;;;21.88;44.17;92966.31;6261595;27;103426;-65
2022/12/11 04:37:30;;;;;;;7.23;6.63;;;;;;;21.94;44.14;92983.53;6286990;27;103031;-65
2022/12/11 04:40:33;;;;;;;7.27;6.67;;;;;;;21.95;44.00;92993.81;6286168;27;103172;-65
2022/12/11 04:43:36;;;;;;;8.13;7.43;;;;;;;21.92;44.11;92993.78;6270427;27;103231;-65
2022/12/11 04:46:39;;;;;;;7.03;6.43;;;;;;;21.96;44.13;92991.94;6267129;27;103348;-65
2022/12/11 04:49:44;;;;;;;7.23;6.63;;;;;;;21.95;44.31;92987.72;6287789;27;104022;-65
2022/12/11 04:52:47;;;;;;;7.20;6.60;;;;;;;21.94;44.04;92989.63;6285045;27;103369;-65
2022/12/11 04:55:50;;;;;;;7.60;7.00;;;;;;;21.86;44.19;92974.66;6273446;27;103469;-65
2022/12/11 04:58:53;;;;;;;7.87;7.27;;;;;;;21.95;44.07;92985.06;6281589;27;103373;-65
2022/12/11 05:01:56;;;;;;;7.60;7.00;;;;;;;21.95;44.10;92991.16;6283817;27;103249;-65
2022/12/11 05:05:02;;;;;;;8.23;7.53;;;;;;;21.95;43.95;92982.41;6286382;27;103072;-64
2022/12/11 05:08:05;;;;;;;8.13;7.53;;;;;;;21.85;44.21;92970.47;6276133;27;103611;-64
2022/12/11 05:11:10;;;;;;;8.80;8.10;;;;;;;21.95;44.10;92985.06;6286793;27;103855;-64
2022/12/11 05:14:14;;;;;;;7.60;7.00;;;;;;;21.96;44.01;92983.94;6281636;27;105801;-64
2022/12/11 05:17:17;;;;;;;7.70;7.10;;;;;;;21.95;44.17;92983.19;6285679;27;103166;-64
2022/12/11 05:20:21;;;;;;;8.20;7.60;;;;;;;21.95;43.89;93004.47;6268148;27;105026;-64
2022/12/11 05:23:24;;;;;;;8.27;7.57;;;;;;;21.95;43.71;93009.03;6283378;27;103213;-63
2022/12/11 05:26:27;;;;;;;8.90;8.20;;;;;;;21.97;44.15;92996.13;6286242;27;103305;-65
2022/12/11 05:29:30;;;;;;;8.70;8.00;;;;;;;21.94;43.79;92986.97;6285883;27;103254;-63
2022/12/11 05:32:33;;;;;;;8.20;7.60;;;;;;;21.92;44.27;93004.44;6266095;27;103182;-64
2022/12/11 05:35:38;;;;;;;8.97;8.27;;;;;;;21.95;44.12;93007.13;6270362;27;103229;-64
2022/12/11 05:38:41;;;;;;;8.70;8.00;;;;;;;21.95;43.91;92987.72;6285785;27;104293;-64
2022/12/11 05:41:44;;;;;;;8.87;8.07;;;;;;;21.95;43.73;92999.16;6278203;27;103100;-64
2022/12/11 05:44:49;;;;;;;8.80;8.10;;;;;;;21.95;44.00;92974.41;6274932;27;103263;-64
2022/12/11 05:47:52;;;;;;;9.10;8.40;;;;;;;21.94;43.94;92970.97;6286212;27;103749;-64
2022/12/11 05:51:00;;;;;;;8.43;7.73;;;;;;;21.93;43.70;92972.09;6284407;27;102995;-64
2022/12/11 05:54:04;;;;;;;9.07;8.37;;;;;;;21.92;43.52;92957.25;6266074;27;105339;-64
2022/12/11 05:57:07;;;;;;;8.67;7.97;;;;;;;21.95;43.64;92966.44;6284874;27;107220;-64
2022/12/11 06:00:12;;;;;;;8.80;8.10;;;;;;;21.92;44.21;92953.81;6284050;27;104066;-64
2022/12/11 06:03:15;;;;;;;9.07;8.30;;;;;;;21.94;44.20;92963.00;6283033;27;103053;-64
2022/12/11 06:06:20;;;;;;;8.27;7.67;;;;;;;21.95;43.90;92961.09;6258877;27;103458;-64
2022/12/11 06:09:23;;;;;;;8.53;7.93;;;;;;;21.94;43.81;92968.31;6284246;27;103163;-64
2022/12/11 06:12:27;;;;;;;9.83;8.93;;;;;;;21.95;44.11;92971.75;6282411;27;103248;-65
2022/12/11 06:15:30;;;;;;;9.20;8.40;;;;;;;21.94;44.03;92968.31;6283915;27;103512;-64
2022/12/11 06:18:36;;;;;;;9.20;8.30;;;;;;;21.94;43.85;92981.63;6274101;27;103842;-64
2022/12/11 06:21:40;;;;;;;9.50;8.67;;;;;;;21.91;44.03;92970.94;6268326;27;102827;-64
2022/12/11 06:24:44;;;;;;;9.03;8.23;;;;;;;21.94;44.03;92996.84;6278053;27;102983;-65
2022/12/11 06:27:47;;;;;;;8.37;7.77;;;;;;;21.92;43.36;93005.19;6278978;27;104142;-64
2022/12/11 06:30:50;;;;;;;8.77;8.07;;;;;;;21.94;43.73;93021.59;6278039;27;103053;-64
2022/12/11 06:33:53;;;;;;;8.50;7.90;;;;;;;21.91;43.83;93048.16;6280486;27;103120;-65
2022/12/11 06:36:57;;;;;;;8.50;7.80;;;;;;;21.86;43.71;93049.22;6275732;27;103107;-64
2022/12/11 06:40:00;;;;;;;8.10;7.50;;;;;;;21.95;43.62;93064.97;6273539;27;104835;-64
2022/12/11 06:43:03;;;;;;;8.47;7.83;;;;;;;21.97;43.24;93042.16;6269236;27;103825;-65
2022/12/11 06:46:07;;;;;;;8.90;8.20;;;;;;;21.89;43.76;93037.84;6272520;27;103334;-63
2022/12/11 06:49:10;;;;;;;8.37;7.67;;;;;;;21.97;43.21;93047.50;6284918;27;103047;-64
2022/12/11 06:52:15;;;;;;;8.47;7.77;;;;;;;21.96;43.47;93059.28;6272163;27;104239;-63
2022/12/11 06:55:20;;;;;;;7.60;7.00;;;;;;;22.00;43.51;93060.09;6281585;27;102779;-64
2022/12/11 06:58:23;;;;;;;8.37;7.77;;;;;;;22.00;43.21;93046.78;6284389;27;103201;-64
2022/12/11 07:01:28;;;;;;;8.53;7.83;;;;;;;22.04;43.49;93046.88;6284141;27;102820;-63
2022/12/11 07:04:31;;;;;;;12.70;11.60;;;;;;;22.06;43.51;93049.94;6264999;27;105652;-64
2022/12/11 07:07:36;;;;;;;19.37;17.77;;;;;;;22.08;43.63;93069.78;6283479;27;103001;-65
2022/12/11 07:10:39;;;;;;;17.73;16.33;;;;;;;22.09;43.43;93063.31;6283752;27;104191;-63
2022/12/11 07:13:42;;;;;;;21.23;19.53;;;;;;;22.15;43.91;93065.69;6276720;27;103211;-63
2022/12/11 07:16:45;;;;;;;22.57;20.60;;;;;;;22.17;43.50;93074.09;6272956;27;103269;-63
2022/12/11 07:19:48;;;;;;;20.20;18.60;;;;;;;22.17;43.55;93074.09;6285324;27;104062;-65
2022/12/11 07:22:54;;;;;;;19.70;18.10;;;;;;;22.11;43.72;93055.75;6282364;27;103253;-65
2022/12/11 07:25:59;;;;;;;19.20;17.60;;;;;;;22.19;43.81;93063.88;6261110;27;103143;-63
2022/12/11 07:29:07;;;;;;;17.83;16.43;;;;;;;22.19;43.54;93079.88;6273234;27;103328;-61
2022/12/11 07:32:33;;;;;;;;;;;;;;;;;;;;;
2022/12/11 07:36:19;;;;;;;17.33;15.90;;;;;;;22.15;43.69;93077.13;6283191;27;102748;-65
2022/12/11 07:39:48;;;;;;;15.50;14.30;;;;;;;22.14;43.79;93088.91;6275265;27;102831;-65
2022/12/11 07:43:00;;;;;;;15.47;14.17;;;;;;;22.11;43.90;93079.72;6262672;27;103020;-65
2022/12/11 07:49:42;;;;;;;13.37;12.37;;;;;;;22.10;43.46;93102.16;6281087;27;102812;-64
2022/12/11 07:52:45;;;;;;;13.40;12.30;;;;;;;22.11;43.61;93116.25;6284309;27;104646;-66
2022/12/11 07:55:50;;;;;;;12.47;11.20;;;;;;;22.10;43.03;93128.78;6282040;27;103158;-66
2022/12/11 07:58:53;;;;;;;12.10;11.00;;;;;;;22.15;43.14;93119.75;6282971;27;102992;-64
2022/12/11 08:01:56;;;;;;;10.10;9.23;;;;;;;22.20;42.59;93105.38;6274427;27;103189;-64
2022/12/11 08:04:59;;;;;;;10.60;9.50;;;;;;;22.17;42.32;93117.50;6286327;27;103138;-64
2022/12/11 08:08:02;;;;;;;8.50;7.70;;;;;;;22.14;42.09;93122.75;6286881;27;104546;-65
2022/12/11 08:11:11;;;;;;;8.40;7.70;;;;;;;22.11;42.20;93124.22;6285938;27;103045;-67
2022/12/11 08:14:22;;;;;;;8.07;7.37;;;;;;;22.13;41.64;93132.63;6260625;27;104134;-65
2022/12/11 08:17:25;;;;;;;7.30;6.60;;;;;;;22.17;42.04;93132.69;6286205;27;103345;-65
2022/12/11 08:20:34;;;;;;;8.23;6.70;;;;;;;21.92;42.38;93084.31;6288133;27;103054;-66
2022/12/11 08:23:38;;;;;;;7.17;6.47;;;;;;;22.17;42.30;93109.50;6276705;27;103035;-65
2022/12/11 08:26:42;;;;;;;7.27;6.20;;;;;;;22.27;43.11;93102.84;6280194;27;103539;-65
2022/12/11 08:29:46;;;;;;;6.30;5.40;;;;;;;22.34;43.26;93102.94;6280753;27;103428;-64
2022/12/11 08:32:49;;;;;;;7.77;6.07;;;;;;;22.35;43.82;93096.53;6276620;27;104063;-65
2022/12/11 08:35:52;;;;;;;8.23;5.23;;;;;;;22.37;44.25;93096.94;6265866;27;103815;-65
2022/12/11 08:38:56;;;;;;;6.70;6.00;;;;;;;22.39;44.74;93084.00;6287271;27;103810;-64
2022/12/11 08:42:00;;;;;;;7.03;5.57;;;;;;;22.38;44.66;93090.47;6282969;27;102959;-66
2022/12/11 08:45:04;;;;;;;7.37;5.47;;;;;;;22.37;44.84;93083.59;6282503;27;103099;-66
2022/12/11 08:48:07;;;;;;;7.83;5.80;;;;;;;22.32;45.19;93081.97;6274828;27;104266;-65
2022/12/11 08:51:13;;;;;;;7.37;6.50;;;;;;;22.40;45.44;93081.00;6264289;27;103166;-65
2022/12/11 08:54:16;;;;;;;7.40;6.70;;;;;;;22.38;45.52;93074.47;6277902;27;102733;-66
2022/12/11 08:57:22;;;;;;;10.93;8.90;;;;;;;22.35;45.29;93072.53;6280435;27;103036;-65
2022/12/11 09:00:25;;;;;;;11.60;9.53;;;;;;;22.38;45.37;93087.81;6280959;27;103244;-66
2022/12/11 09:03:28;;;;;;;14.87;13.37;;;;;;;22.37;45.36;93083.59;6269945;27;103512;-65
2022/12/11 09:06:33;;;;;;;17.90;16.30;;;;;;;22.40;45.41;93077.56;6280155;27;103328;-66
2022/12/11 09:09:36;;;;;;;20.40;18.50;;;;;;;22.38;45.44;93075.25;6276380;27;103296;-65
2022/12/11 09:12:41;;;;;;;24.23;22.00;;;;;;;22.45;45.31;93061.25;6284548;27;104295;-65
2022/12/11 09:15:44;;;;;;;40.23;36.37;;;;;;;22.42;45.65;93062.75;6278715;27;103567;-68
2022/12/11 09:18:49;;;;;;;53.13;48.13;;;;;;;22.38;46.35;93043.28;6285019;27;103131;-66
2022/12/11 09:21:52;;;;;;;65.67;59.87;;;;;;;22.37;47.13;93054.28;6272625;27;103044;-66
2022/12/11 09:24:55;;;;;;;67.13;61.00;;;;;;;22.37;46.62;93046.28;6279590;27;103182;-66
2022/12/11 09:28:00;;;;;;;85.10;77.70;;;;;;;22.38;46.70;93045.94;6284912;27;103209;-67
2022/12/11 09:31:09;;;;;;;94.27;86.00;;;;;;;22.38;47.14;93042.50;6287334;27;103253;-68
2022/12/11 09:34:13;;;;;;;98.70;90.30;;;;;;;22.40;47.30;93046.34;6265061;27;105747;-66
2022/12/11 09:37:16;;;;;;;90.13;82.47;;;;;;;22.39;46.84;93044.03;6281343;27;103274;-65
2022/12/11 09:40:20;;;;;;;90.20;82.33;;;;;;;22.29;47.13;93041.97;6286319;27;103138;-66
2022/12/11 09:43:41;;;;;;;82.13;75.20;;;;;;;22.35;47.29;93035.22;6277714;27;103088;-66
2022/12/11 09:46:45;;;;;;;83.87;76.70;;;;;;;22.29;46.79;93024.06;6279229;27;103125;-66
2022/12/11 09:49:51;;;;;;;78.10;71.30;;;;;;;22.34;47.26;93050.41;6284872;27;103504;-67
2022/12/11 09:53:04;;;;;;;79.17;72.50;;;;;;;22.35;47.18;93043.22;6266856;27;103726;-66
2022/12/11 09:56:16;;;;;;;73.20;67.00;;;;;;;22.35;46.90;93043.22;6270374;27;105110;-67
2022/12/11 09:59:31;;;;;;;72.23;65.97;;;;;;;22.29;46.65;93045.41;6280203;27;104184;-67
2022/12/11 10:02:48;;;;;;;70.97;64.87;;;;;;;22.37;47.09;93051.63;6280971;27;104000;-66
2022/12/11 10:05:59;;;;;;;68.50;62.60;;;;;;;22.33;47.06;93056.88;6278009;27;103792;-67
2022/12/11 10:09:17;;;;;;;67.50;61.43;;;;;;;22.34;47.74;93046.97;6268021;27;103991;-67
2022/12/11 10:12:37;;;;;;;66.27;60.60;;;;;;;22.46;48.09;93059.38;6264941;27;103957;-66
2022/12/11 10:15:49;;;;;;;63.87;58.47;;;;;;;22.44;48.85;93057.06;6279192;27;105143;-66
2022/12/11 10:18:53;;;;;;;67.40;60.93;;;;;;;22.46;50.17;93059.38;6259967;27;103360;-66
2022/12/11 10:21:57;;;;;;;65.57;59.20;;;;;;;22.46;50.71;93049.47;6279634;27;103132;-66
2022/12/11 10:25:03;;;;;;;67.93;61.00;;;;;;;22.47;51.26;93059.00;6265174;27;104099;-67
2022/12/11 10:28:16;;;;;;;60.63;54.90;;;;;;;22.44;50.33;93064.28;6282562;27;103073;-67
2022/12/11 10:31:27;;;;;;;58.70;53.17;;;;;;;22.44;49.92;93073.06;6276829;27;104194;-66
2022/12/11 10:34:34;;;;;;;61.27;55.57;;;;;;;22.35;50.07;93053.88;6258907;27;104309;-66
2022/12/11 10:37:39;;;;;;;59.27;53.73;;;;;;;22.44;50.11;93057.06;6261464;27;103122;-65
2022/12/11 10:40:45;;;;;;;57.73;52.33;;;;;;;22.36;49.47;93039.44;6280282;27;103155;-68
2022/12/11 10:43:50;;;;;;;54.17;49.33;;;;;;;22.46;49.36;93046.81;6258167;27;103211;-66
2022/12/11 10:47:06;;;;;;;55.80;50.43;;;;;;;22.47;49.77;93043.00;6280154;27;103304;-65
2022/12/11 10:50:23;;;;;;;53.20;48.03;;;;;;;22.41;49.34;93036.47;6284727;27;103092;-65
2022/12/11 10:53:27;;;;;;;56.17;50.87;;;;;;;22.44;49.51;93037.63;6259754;27;103345;-66
2022/12/11 10:56:34;;;;;;;55.43;50.13;;;;;;;22.40;48.95;93030.34;6269605;27;103053;-65
2022/12/11 10:59:41;;;;;;;54.60;49.50;;;;;;;22.36;49.13;93034.88;6285097;27;103179;-66
2022/12/11 11:02:45;;;;;;;55.80;50.53;;;;;;;22.33;48.75;93029.47;6283177;27;103250;-66
2022/12/11 11:05:50;;;;;;;55.63;50.20;;;;;;;22.29;48.72;93028.63;6268468;27;104239;-66
2022/12/11 11:08:54;;;;;;;55.57;50.03;;;;;;;22.28;48.68;93021.78;6281221;27;104104;-67
2022/12/11 11:11:57;;;;;;;56.43;51.10;;;;;;;22.28;48.78;93011.13;6276053;27;103347;-66
2022/12/11 11:15:12;;;;;;;55.40;50.20;;;;;;;22.27;49.01;93014.91;6280196;27;102996;-66
2022/12/11 11:18:25;;;;;;;55.87;50.63;;;;;;;22.26;48.72;93013.38;6270156;27;103044;-65
2022/12/11 11:21:30;;;;;;;56.40;50.87;;;;;;;22.22;48.53;93008.00;6289697;27;103372;-66
2022/12/11 11:24:38;;;;;;;57.60;51.83;;;;;;;22.25;48.53;93014.50;6287859;27;103104;-65
2022/12/11 11:27:45;;;;;;;55.90;50.67;;;;;;;22.24;48.44;93015.63;6278977;27;103365;-67
2022/12/11 11:30:59;;;;;;;56.33;51.17;;;;;;;22.26;48.50;93016.81;6284704;27;103582;-67
2022/12/11 11:34:09;;;;;;;56.77;51.60;;;;;;;22.27;48.85;93014.91;6279460;27;103164;-67
2022/12/11 11:37:24;;;;;;;55.10;49.90;;;;;;;22.25;48.74;93012.59;6285166;27;104328;-66
2022/12/11 11:40:30;;;;;;;54.53;49.33;;;;;;;22.25;48.57;93006.50;6275432;27;105799;-65
2022/12/11 11:43:39;;;;;;;53.37;48.37;;;;;;;22.26;48.75;93005.38;6275060;27;104212;-66
2022/12/11 11:46:49;;;;;;;53.07;48.10;;;;;;;22.23;48.19;93014.09;6284091;27;104430;-67
2022/12/11 11:50:02;;;;;;;47.83;43.20;;;;;;;22.26;48.20;93018.69;6284908;27;102994;-67
2022/12/11 11:53:10;;;;;;;36.30;32.70;;;;;;;22.27;48.79;93007.69;6269955;27;104153;-67
2022/12/11 11:56:20;;;;;;;35.03;31.57;;;;;;;22.31;49.28;93000.50;6273244;27;103213;-67
2022/12/11 11:59:27;;;;;;;33.67;30.67;;;;;;;22.36;49.55;92994.13;6288249;27;103579;-67
2022/12/11 12:02:31;;;;;;;32.90;29.80;;;;;;;22.35;49.66;92993.34;6268563;27;103946;-66
2022/12/11 12:05:44;;;;;;;31.70;29.00;;;;;;;22.35;50.16;92987.25;6268137;27;105278;-66
2022/12/11 12:08:58;;;;;;;31.37;28.37;;;;;;;22.34;50.24;92983.81;6281471;27;103899;-66
2022/12/11 12:12:15;;;;;;;30.10;27.33;;;;;;;22.33;50.44;92986.81;6279811;27;103534;-66
2022/12/11 12:15:35;;;;;;;27.73;25.20;;;;;;;22.34;51.30;92983.81;6274149;27;104914;-65
2022/12/11 12:18:51;;;;;;;27.97;25.30;;;;;;;22.31;51.91;92979.19;6283715;27;103144;-66
2022/12/11 12:21:57;;;;;;;27.30;24.73;;;;;;;22.32;52.33;92975.41;6284098;27;103284;-65
2022/12/11 12:25:15;;;;;;;27.67;25.07;;;;;;;22.31;52.26;92987.19;6278617;27;102983;-67
2022/12/11 12:28:27;;;;;;;26.17;23.80;;;;;;;22.21;52.38;92968.38;6284142;27;103574;-66
2022/12/11 12:31:44;;;;;;;28.20;25.60;;;;;;;22.33;52.08;92986.81;6286182;27;103463;-66
2022/12/11 12:35:05;;;;;;;26.03;23.57;;;;;;;22.30;52.16;93003.53;6273869;27;103936;-67
2022/12/11 12:38:17;;;;;;;27.03;24.60;;;;;;;22.32;51.91;93014.59;6274670;27;103447;-65
2022/12/11 12:41:24;;;;;;;27.53;25.23;;;;;;;22.31;52.23;93016.50;6285722;27;103020;-65
2022/12/11 12:44:37;;;;;;;27.70;25.20;;;;;;;22.31;51.97;93021.06;6283053;27;104678;-67
2022/12/11 12:47:42;;;;;;;29.60;26.93;;;;;;;22.32;51.93;93035.91;6290480;27;103119;-66
2022/12/11 12:50:51;;;;;;;30.27;27.53;;;;;;;22.22;52.21;93042.63;6280385;27;102994;-68
2022/12/11 12:53:59;;;;;;;27.93;25.40;;;;;;;22.30;51.78;93054.94;6280578;27;103323;-67
2022/12/11 12:57:04;;;;;;;26.23;24.03;;;;;;;22.33;50.57;93040.88;6287846;27;103166;-68
2022/12/11 13:00:09;;;;;;;28.27;23.97;;;;;;;22.32;50.51;93060.66;6277367;27;103644;-61
2022/12/11 13:03:19;;;;;;;25.53;22.87;;;;;;;22.38;50.35;93071.81;6287011;27;104019;-62
2022/12/11 13:06:30;;;;;;;25.97;23.43;;;;;;;22.39;50.87;93092.00;6287135;27;103012;-62
2022/12/11 13:09:35;;;;;;;24.40;22.00;;;;;;;22.45;50.81;93089.81;6286945;27;103332;-64
2022/12/11 13:12:44;;;;;;;24.50;22.37;;;;;;;22.41;50.42;93076.44;6277210;27;104050;-63
2022/12/11 13:15:47;;;;;;;23.83;21.60;;;;;;;22.44;50.25;93109.59;6287869;27;103950;-63
2022/12/11 13:18:50;;;;;;;23.53;21.43;;;;;;;22.45;50.37;93092.47;6286509;27;103327;-64
2022/12/11 13:21:58;;;;;;;24.00;21.80;;;;;;;22.45;50.24;93121.78;6282235;27;103581;-64
2022/12/11 13:25:20;;;;;;;22.50;20.60;;;;;;;22.44;50.12;93121.03;6281362;27;104115;-63
2022/12/11 13:28:27;;;;;;;22.57;20.60;;;;;;;22.42;50.46;93124.03;6286995;27;104194;-63
2022/12/11 13:31:35;;;;;;;21.00;19.30;;;;;;;22.45;50.30;93141.22;6287647;27;103798;-63
2022/12/11 13:34:40;;;;;;;21.43;19.57;;;;;;;22.45;50.39;93173.19;6274565;27;103023;-64
2022/12/11 13:37:44;;;;;;;20.87;18.77;;;;;;;22.45;50.20;93175.09;6286768;27;103094;-62
2022/12/11 13:40:53;;;;;;;20.80;19.00;;;;;;;22.44;50.17;93182.31;6263406;27;105217;-63
2022/12/11 13:43:58;;;;;;;20.10;18.23;;;;;;;22.46;50.47;93197.97;6287164;27;104100;-64
2022/12/11 13:47:03;;;;;;;19.33;17.60;;;;;;;22.45;49.79;93223.06;6276676;27;103487;-63
2022/12/11 13:50:16;;;;;;;18.70;17.00;;;;;;;22.42;49.75;93214.66;6286153;27;103317;-63
2022/12/11 13:53:21;;;;;;;18.07;16.47;;;;;;;22.42;50.12;93229.88;6286632;27;104253;-63
2022/12/11 13:56:25;;;;;;;19.27;17.77;;;;;;;22.39;49.79;93238.59;6281218;27;103158;-62
2022/12/11 13:59:32;;;;;;;18.30;16.70;;;;;;;22.42;49.83;93235.22;6282771;27;104069;-64
2022/12/11 14:02:41;;;;;;;18.53;16.90;;;;;;;22.41;49.70;93237.09;6286599;27;104191;-64
2022/12/11 14:05:44;;;;;;;16.60;15.20;;;;;;;22.40;49.96;93258.78;6285750;27;103185;-64
2022/12/11 14:08:53;;;;;;;18.33;16.73;;;;;;;22.40;49.66;93266.78;6273076;27;103080;-62
2022/12/11 14:11:58;;;;;;;18.00;16.40;;;;;;;22.41;49.81;93270.97;6287127;27;103915;-62
2022/12/11 14:15:03;;;;;;;16.43;15.13;;;;;;;22.40;50.06;93275.53;6286498;27;103086;-63
2022/12/11 14:18:06;;;;;;;15.90;14.60;;;;;;;22.38;49.77;93283.13;6285700;27;105407;-63
2022/12/11 14:21:20;;;;;;;17.00;15.50;;;;;;;22.38;49.94;93285.78;6276816;27;103311;-62
2022/12/11 14:24:23;;;;;;;15.60;14.23;;;;;;;22.39;49.54;93299.88;6286068;27;103485;-63
2022/12/11 14:27:28;;;;;;;14.77;13.47;;;;;;;22.39;49.46;93297.22;6286607;27;103211;-63
2022/12/11 14:30:46;;;;;;;14.30;13.17;;;;;;;22.35;49.97;93312.38;6280199;27;103260;-64